メインページ
METAR-TAF:

METAR-TAF

空港 :

カムループス, ブリティッシュコロンビア州, カナダ

緯度: 50-42N, 経度: 120-27W, 海抜: 345m

現時点の気象観測

当レポートは53分前の13:00(UTC)に作成
南西の風 5kt、から西/南西の間で変化する
気温 14°C
湿度 77%
気圧 1017 hPa
視程: 64.4km
高度6000ftの雲は散在している
高度9300ftの千切れ雲あり
高度13000ftの千切れ雲あり
弱いにわか雨

METAR: CYKA 231300Z 23005KT 100V240 40SM -SHRA SCT060 BKN093 BKN130 14/10 A3004 RMK SC4AC2AC1 CVCTV CLD EMBD SLP175

時間: 06:53 (13:53 UTC)

予報

当レポートは52分前の13:01(UTC)に作成
予報は23日の 13時(UTC)から 24日の 01時(UTC)まで有効
変向風 3kt
視程: 10km
高度10000ftの千切れ雲あり
23日の 13時(UTC)から 23日の 15時(UTC)まで一時的に
視程: 8.0km
高度8000ftの千切れ雲あり
弱いにわか雨, 靄
23日の 2100時(UTC)から
変向風 3kt
視程: 10km
高度7000ftの雲は散在している
高度10000ftの千切れ雲あり
23日の 21時(UTC)から 24日の 01時(UTC)まで一時的に
変向風 15kt、最大25ktの突風を伴う
視程: 10km
高度6000ftの曇り, 積乱雲.
弱いにわか雨, 近辺で激しい雷雨

TAF: CYKA 231301Z 2313/2401 VRB03KT P6SM BKN100 TEMPO 2313/2315 5SM -SHRA BR BKN080 FM232100 VRB03KT P6SM SCT070 BKN100 TEMPO 2321/2401 VRB15G25KT P6SM -SHRA VCTS OVC060CB RMK NXT FCST BY 231900Z

4,000以上の空港の気象観測と天気予報(METAR報とTAF報)

利用可能な観測所は地図上に黄色い丸と赤い丸で示す。

丸の上にカーソルを重ねると観測所名を参照できる。

次にクリックすると気象観測と天気予報を参照できる。

マップの切り替え:黒色「×」印の緑ボタンをクリックして拡大、「-」印の緑ボタンをクリックして縮小、緑色の三角印をクリックして隣りの地図に切り替え


METAR-TAF: